Latest Weather Observations for Lismore Airport

IDN60801

Issued at 12:35 pm EDT Thursday 23 October 2014 (issued every 30 minutes, with the page automatically refreshed every 10 minutes)

About weather observations | Map of weather stations | Latest weather observations for NSW | Other Formats
Station Details ID: 058214 Name: LISMORE AIRPORT AWS Lat: -28.83 Lon: 153.26 Height: 9.21 m
Data from the previous 72 hours. | See also: Recent months for locations in New South Wales
Date/Time
EDT
Temp
°C
App
Temp
°C
Dew
Point
Rel
Hum
%
Delta-T
°C
Wind Press
QNH
hPa
Press
MSL
hPa
Rain
since 9 am
mm
Dir
 
Spd
km/h
Gust
km/h
Spd
kts
Gust
kts
23/12:30pm 25.7 24.5 12.9 45 7.4 WNW 11 19 6 10 1019.2 1019.2 0.0
23/12:00pm 25.2 23.9 12.4 45 7.3 NW 11 19 6 10 1019.8 1019.8 0.0
23/11:30am 23.9 23.1 12.8 49 6.4 N 9 17 5 9 1020.5 1020.5 0.0
23/11:00am 23.1 22.0 12.1 50 6.2 NW 9 15 5 8 1021.0 1021.0 0.0
23/10:30am 22.3 20.5 12.0 52 5.8 NNW 13 20 7 11 1021.5 1021.5 0.0
23/10:00am 21.8 20.5 12.4 55 5.3 NW 11 17 6 9 1021.9 1021.9 0.0
23/09:30am 20.0 18.7 12.5 62 4.2 NW 11 17 6 9 1022.1 1022.1 0.0
23/09:00am 18.0 17.4 13.5 75 2.5 N 9 13 5 7 1022.2 1022.2 0.2
23/08:30am 15.2 14.2 12.3 83 1.6 N 9 13 5 7 1022.5 1022.5 0.2
23/08:00am 13.1 12.1 12.3 95 0.4 N 9 11 5 6 1022.6 1022.6 0.2
23/07:30am 11.9 10.7 11.7 99 0.1 N 9 11 5 6 1022.6 1022.6 0.2
23/07:00am 9.8 7.3 9.7 99 0.0 N 13 15 7 8 1022.3 1022.3 0.2
23/06:56am 9.7 7.6 9.6 99 0.0 N 11 15 6 8 1022.2 1022.2 0.0
23/06:31am 9.2 6.5 9.1 99 0.0 N 13 15 7 8 1022.0 1022.0 0.0
23/06:30am 9.2 6.5 9.1 99 0.0 N 13 15 7 8 1022.0 1022.0 0.0
23/06:01am 9.0 6.7 8.9 99 0.0 N 11 13 6 7 1021.7 1021.7 0.0
23/06:00am 9.0 6.7 8.9 99 0.0 N 11 13 6 7 1021.7 1021.7 0.0
23/05:59am 9.0 6.7 8.9 99 0.0 N 11 13 6 7 1021.7 1021.7 0.0
23/05:56am 8.9 6.5 8.8 99 0.0 N 11 13 6 7 1021.8 1021.8 0.0
23/05:42am 8.8 6.4 8.7 99 0.0 N 11 13 6 7 1021.8 1021.8 0.0
23/05:30am 9.0 6.7 8.9 99 0.0 N 11 13 6 7 1021.8 1021.8 0.0
23/05:11am 9.1 6.8 9.0 99 0.0 N 11 13 6 7 1021.7 1021.7 0.0
23/05:10am 9.0 6.7 8.9 99 0.0 N 11 13 6 7 1021.7 1021.7 0.0
23/05:00am 9.1 6.8 9.0 99 0.0 N 11 13 6 7 1021.6 1021.6 0.0
23/04:55am 9.2 6.9 9.1 99 0.0 N 11 13 6 7 1021.6 1021.6 0.0
23/04:32am 9.8 7.7 9.7 99 0.1 N 11 13 6 7 1021.5 1021.5 0.0
23/04:30am 9.9 7.8 9.8 99 0.1 NNE 11 13 6 7 1021.5 1021.5 0.0
23/04:09am 9.5 7.3 9.4 99 0.0 N 11 15 6 8 1021.6 1021.6 0.0
23/04:00am 9.6 8.8 9.5 99 0.0 N 4 11 2 6 1021.7 1021.7 0.0
23/03:30am 8.9 8.6 8.5 97 0.2 CALM 0 6 0 3 1021.9 1021.9 0.0
23/03:00am 10.1 8.4 9.9 99 0.1 N 9 11 5 6 1022.1 1022.1 0.0
23/02:30am 10.0 7.9 9.7 98 0.2 N 11 13 6 7 1022.3 1022.3 0.0
23/02:00am 10.4 8.0 10.1 98 0.2 NNW 13 15 7 8 1022.5 1022.5 0.0
23/01:30am 11.0 9.5 10.5 97 0.3 N 9 11 5 6 1022.7 1022.7 0.0
23/01:00am 11.2 9.4 10.7 97 0.3 N 11 13 6 7 1022.9 1022.9 0.0
23/12:30am 11.2 9.7 10.6 96 0.3 N 9 11 5 6 1023.2 1023.2 0.0
23/12:00am 11.5 9.3 10.9 96 0.3 N 13 15 7 8 1023.3 1023.3 0.0
 
Date/Time
EDT
Temp
°C
App
Temp
°C
Dew
Point
Rel
Hum
%
Delta-T
°C
Wind Press
QNH
hPa
Press
MSL
hPa
Rain
since 9 am
mm
Dir
 
Spd
km/h
Gust
km/h
Spd
kts
Gust
kts
22/11:30pm 12.3 12.6 10.9 91 0.7 CALM 0 0 0 0 1023.4 1023.4 0.0
22/11:00pm 11.6 11.6 9.9 89 0.9 CALM 0 0 0 0 1023.5 1023.5 0.0
22/10:30pm 13.1 13.3 10.6 85 1.3 CALM 0 0 0 0 1023.4 1023.4 0.0
22/10:00pm 13.3 13.4 10.3 82 1.5 CALM 0 0 0 0 1023.5 1023.5 0.0
22/09:30pm 13.9 14.1 10.5 80 1.8 CALM 0 0 0 0 1023.7 1023.7 0.0
22/09:00pm 13.0 12.9 9.3 78 1.9 CALM 0 0 0 0 1023.5 1023.5 0.0
22/08:30pm 17.0 15.6 10.8 67 3.3 ENE 9 13 5 7 1023.4 1023.4 0.0
22/08:00pm 17.8 16.3 10.7 63 3.8 ENE 9 17 5 9 1023.3 1023.3 0.0
22/07:30pm 18.4 16.6 11.0 62 4.0 E 11 15 6 8 1023.2 1023.2 0.0
22/07:00pm 19.1 16.7 11.4 61 4.2 E 15 20 8 11 1023.0 1023.0 0.0
22/06:30pm 20.3 17.8 11.2 56 5.0 E 15 20 8 11 1022.9 1022.9 0.0
22/06:00pm 21.1 18.7 11.4 54 5.4 E 15 20 8 11 1022.7 1022.7 0.0
22/05:30pm 21.8 19.0 11.5 52 5.7 ESE 17 24 9 13 1022.7 1022.7 0.0
22/05:00pm 22.0 19.1 11.1 50 6.0 E 17 24 9 13 1022.6 1022.6 0.0
22/04:30pm 22.6 20.7 11.7 50 6.1 ESE 13 20 7 11 1022.5 1022.5 0.0
22/04:00pm 22.7 19.9 11.4 49 6.3 SE 17 28 9 15 1022.5 1022.5 0.0
22/03:30pm 23.2 20.8 11.3 47 6.7 E 15 20 8 11 1022.8 1022.8 0.0
22/03:00pm 22.8 19.7 11.5 49 6.3 SSE 19 26 10 14 1023.2 1023.2 0.0
22/02:30pm 23.2 21.3 11.9 49 6.4 S 13 24 7 13 1023.5 1023.5 0.0
22/02:00pm 22.4 20.0 11.5 50 6.1 SE 15 26 8 14 1024.1 1024.1 0.0
22/01:30pm 21.6 18.0 13.2 59 4.8 SSE 24 35 13 19 1024.5 1024.5 0.0
22/01:00pm 21.6 18.9 11.6 53 5.5 SSE 17 32 9 17 1024.9 1024.9 0.0
22/12:30pm 22.0 19.7 13.1 57 5.1 SSW 17 24 9 13 1025.3 1025.3 0.0
22/12:00pm 20.8 19.5 12.5 59 4.7 E 11 17 6 9 1025.8 1025.8 0.0
22/11:30am 20.6 17.7 12.8 61 4.4 S 20 28 11 15 1026.1 1026.1 0.0
22/11:00am 19.1 18.9 14.8 76 2.5 ESE 9 13 5 7 1026.5 1026.5 0.0
22/10:30am 19.8 18.3 13.0 65 3.9 SSE 13 20 7 11 1026.4 1026.4 0.0
22/10:00am 20.3 19.3 13.5 65 3.9 S 11 22 6 12 1026.5 1026.5 0.0
22/09:30am 19.1 18.2 13.7 71 3.1 SSE 11 19 6 10 1026.4 1026.4 0.0
22/09:00am 18.0 17.7 13.3 74 2.6 S 7 13 4 7 1026.5 1026.5 0.2
22/08:34am 16.5 15.5 14.5 88 1.1 S 13 19 7 10 1026.6 1026.6 0.2
22/08:30am 16.5 15.1 14.5 88 1.1 S 15 20 8 11 1026.6 1026.6 0.2
22/08:23am 16.4 15.4 14.6 89 1.0 S 13 20 7 11 1026.6 1026.6 0.2
22/08:00am 16.5 16.8 14.9 90 0.9 SW 7 11 4 6 1026.4 1026.4 0.2
22/07:30am 15.2 15.9 14.4 95 0.5 SSE 4 11 2 6 1026.2 1026.2 0.2
22/07:14am 14.7 14.7 14.1 96 0.3 S 7 9 4 5 1026.3 1026.3 0.2
22/07:00am 14.5 14.4 14.0 97 0.3 SSW 7 9 4 5 1026.2 1026.2 0.2
22/06:30am 14.1 15.2 13.6 97 0.3 CALM 0 0 0 0 1026.3 1026.3 0.2
22/06:12am 13.8 14.8 13.2 96 0.3 CALM 0 0 0 0 1026.1 1026.1 0.2
22/06:00am 13.5 14.3 12.6 94 0.5 CALM 0 0 0 0 1026.0 1026.0 0.2
22/05:30am 13.9 14.8 12.8 93 0.6 CALM 0 0 0 0 1025.8 1025.8 0.2
22/05:02am 14.3 15.1 12.7 90 0.9 CALM 0 0 0 0 1025.7 1025.7 0.2
22/05:00am 14.3 15.1 12.7 90 0.9 CALM 0 0 0 0 1025.7 1025.7 0.2
22/04:34am 14.5 13.9 13.4 93 0.6 S 9 13 5 7 1025.9 1025.9 0.2
22/04:30am 14.5 14.2 13.4 93 0.6 S 7 11 4 6 1026.0 1026.0 0.2
22/04:00am 14.5 13.9 13.4 93 0.6 S 9 13 5 7 1026.0 1026.0 0.2
22/03:30am 14.7 14.0 13.2 91 0.8 SW 9 15 5 8 1026.2 1026.2 0.0
22/03:00am 15.1 16.0 13.0 87 1.2 CALM 0 0 0 0 1026.7 1026.7 0.0
22/02:30am 15.1 16.0 13.0 87 1.2 CALM 0 0 0 0 1026.8 1026.8 0.0
22/02:00am 15.3 14.8 12.8 85 1.4 SSW 7 11 4 6 1027.1 1027.1 0.0
22/01:30am 15.3 13.8 13.0 86 1.3 S 13 15 7 8 1027.4 1027.4 0.0
22/01:00am 15.2 14.0 12.9 86 1.3 SSW 11 17 6 9 1027.8 1027.8 0.0
22/12:30am 13.7 13.9 11.7 88 1.1 SW 2 7 1 4 1028.1 1028.1 0.0
22/12:00am 14.4 13.9 12.8 90 0.9 SSE 7 9 4 5 1028.6 1028.6 0.0
 
Date/Time
EDT
Temp
°C
App
Temp
°C
Dew
Point
Rel
Hum
%
Delta-T
°C
Wind Press
QNH
hPa
Press
MSL
hPa
Rain
since 9 am
mm
Dir
 
Spd
km/h
Gust
km/h
Spd
kts
Gust
kts
21/11:30pm 14.1 14.8 12.3 89 1.0 CALM 0 0 0 0 1028.8 1028.8 0.0
21/11:00pm 14.3 14.9 12.0 86 1.2 CALM 0 0 0 0 1028.8 1028.8 0.0
21/10:30pm 15.1 14.4 12.1 82 1.6 S 7 9 4 5 1028.8 1028.8 0.0
21/10:00pm 14.8 13.9 11.4 80 1.8 S 7 9 4 5 1028.9 1028.9 0.0
21/09:30pm 15.5 14.6 12.6 83 1.6 SSW 9 11 5 6 1028.8 1028.8 0.0
21/09:00pm 16.0 15.0 12.2 78 2.1 SSW 9 13 5 7 1028.7 1028.7 0.0
21/08:30pm 17.2 13.9 12.7 75 2.5 SSE 22 28 12 15 1028.6 1028.6 0.0
21/08:00pm 17.3 15.6 12.4 73 2.7 SSE 13 20 7 11 1028.2 1028.2 0.0
21/07:30pm 17.7 14.7 12.6 72 2.8 SSE 20 28 11 15 1027.9 1027.9 0.0
21/07:00pm 18.0 15.0 12.7 71 2.9 SE 20 28 11 15 1027.5 1027.5 0.0
21/06:30pm 18.7 15.4 12.7 68 3.4 SE 22 30 12 16 1027.3 1027.3 0.0
21/06:00pm 19.5 16.6 13.0 66 3.7 SSE 20 28 11 15 1027.1 1027.1 0.0
21/05:30pm 19.7 14.7 12.2 62 4.2 SE 30 43 16 23 1026.8 1026.8 0.0
21/05:00pm 20.6 15.3 12.6 60 4.5 SSE 32 48 17 26 1026.7 1026.7 0.0
21/04:57pm 20.7 15.8 12.4 59 4.7 SSE 30 48 16 26 1026.7 1026.7 0.0
21/04:30pm 20.8 16.4 13.0 61 4.4 SSE 28 39 15 21 1026.7 1026.7 0.0
21/04:00pm 20.6 15.5 11.8 57 4.9 SSE 30 43 16 23 1026.7 1026.7 0.0
21/03:30pm 21.6 16.5 13.0 58 4.9 S 32 43 17 23 1026.7 1026.7 0.0
21/03:00pm 21.8 16.9 12.6 56 5.2 SE 30 39 16 21 1026.9 1026.9 0.0
21/02:30pm 22.2 17.0 12.7 55 5.4 SSE 32 43 17 23 1027.0 1027.0 0.0
21/02:00pm 23.2 17.4 12.8 52 5.9 S 35 50 19 27 1027.3 1027.3 0.0
21/01:30pm 22.0 17.7 13.1 57 5.1 SSE 28 35 15 19 1027.8 1027.8 0.0
21/01:00pm 22.4 16.9 13.5 57 5.1 SSE 35 44 19 24 1028.1 1028.1 0.0
21/12:30pm 20.4 16.5 14.5 69 3.4 S 28 39 15 21 1028.7 1028.7 0.0
21/12:00pm 19.3 15.3 14.1 72 3.0 S 28 33 15 18 1028.9 1028.9 0.0
21/11:30am 19.2 13.9 14.2 73 2.9 S 35 43 19 23 1029.0 1029.0 0.0
21/11:00am 21.2 17.6 14.1 64 4.1 S 26 37 14 20 1028.8 1028.8 0.0
21/10:30am 20.6 17.5 14.5 68 3.6 S 24 32 13 17 1029.0 1029.0 0.0
21/10:00am 20.1 16.9 14.2 69 3.4 S 24 32 13 17 1029.0 1029.0 0.0
21/09:30am 20.2 17.2 14.8 71 3.2 S 24 33 13 18 1028.8 1028.8 0.0
21/09:00am 19.4 16.2 14.2 72 3.0 S 24 32 13 17 1028.5 1028.5 1.4
21/08:30am 19.0 17.7 14.9 77 2.4 S 15 20 8 11 1028.2 1028.2 1.4
21/08:00am 18.6 18.0 15.7 83 1.7 S 13 17 7 9 1028.0 1028.0 1.4
21/07:30am 18.2 17.2 15.5 84 1.6 S 15 22 8 12 1027.6 1027.6 1.4
21/07:00am 17.8 16.7 15.4 86 1.4 S 15 19 8 10 1027.6 1027.6 1.4
21/06:30am 17.7 16.3 15.5 87 1.3 S 17 20 9 11 1027.2 1027.2 1.4
21/06:00am 17.3 16.6 15.5 89 1.0 S 13 15 7 8 1026.7 1026.7 1.4
21/05:30am 17.3 16.5 15.1 87 1.3 S 13 17 7 9 1026.4 1026.4 1.4
21/05:00am 17.8 17.1 15.4 86 1.4 S 13 19 7 10 1026.2 1026.2 1.4
21/04:30am 17.7 16.5 16.0 90 1.0 S 17 20 9 11 1026.1 1026.1 1.4
21/04:00am 17.7 16.6 16.4 92 0.8 S 17 19 9 10 1026.1 1026.1 1.4
21/03:30am 17.8 17.1 16.5 92 0.8 S 15 19 8 10 1026.3 1026.3 1.4
21/03:19am 17.8 17.1 16.3 91 0.9 S 15 19 8 10 1026.4 1026.4 1.4
21/03:00am 17.8 17.1 16.5 92 0.8 S 15 20 8 11 1026.4 1026.4 1.4
21/02:30am 17.6 17.7 16.5 93 0.7 S 11 17 6 9 1026.5 1026.5 1.4
21/02:00am 17.4 18.1 16.1 92 0.8 SSW 7 17 4 9 1026.7 1026.7 1.2
21/01:30am 17.7 17.7 16.2 91 0.9 SSW 11 17 6 9 1026.8 1026.8 0.8
21/01:21am 17.7 18.0 16.0 90 1.0 S 9 13 5 7 1026.8 1026.8 0.6
21/01:00am 17.6 17.7 15.6 88 1.2 SW 9 13 5 7 1026.9 1026.9 0.0
21/12:30am 18.3 18.9 15.9 86 1.4 S 7 9 4 5 1027.4 1027.4 0.0
21/12:00am 18.5 19.2 15.6 83 1.7 S 6 11 3 6 1027.5 1027.5 0.0
 
Date/Time
EDT
Temp
°C
App
Temp
°C
Dew
Point
Rel
Hum
%
Delta-T
°C
Wind Press
QNH
hPa
Press
MSL
hPa
Rain
since 9 am
mm
Dir
 
Spd
km/h
Gust
km/h
Spd
kts
Gust
kts
20/11:30pm 19.1 18.3 15.2 78 2.3 S 13 20 7 11 1027.7 1027.7 0.0
20/11:00pm 19.0 18.3 15.3 79 2.2 S 13 19 7 10 1027.8 1027.8 0.0
20/10:30pm 18.9 17.5 14.6 76 2.5 S 15 20 8 11 1027.8 1027.8 0.0
20/10:00pm 20.1 18.0 15.1 73 2.9 S 20 28 11 15 1027.7 1027.7 0.0
20/09:30pm 20.2 18.6 15.0 72 3.1 S 17 24 9 13 1027.6 1027.6 0.0
20/09:00pm 20.2 17.6 15.0 72 3.0 S 22 32 12 17 1027.2 1027.2 0.0
20/08:30pm 19.9 17.5 15.3 75 2.7 S 22 28 12 15 1026.8 1026.8 0.0
20/08:00pm 20.3 17.2 15.5 74 2.8 S 26 35 14 19 1026.3 1026.3 0.0
20/07:30pm 20.7 17.3 15.7 73 3.0 S 28 37 15 20 1025.9 1025.9 0.0
20/07:00pm 20.8 17.8 14.9 69 3.5 SSE 24 30 13 16 1025.5 1025.5 0.0
20/06:30pm 21.2 17.4 13.6 62 4.4 SSE 26 37 14 20 1025.0 1025.0 0.0
20/06:00pm 22.2 17.8 13.0 56 5.2 SSE 28 37 15 20 1024.7 1024.7 0.0
20/05:30pm 23.4 18.0 12.1 49 6.4 S 32 43 17 23 1024.1 1024.1 0.0
20/05:00pm 24.4 18.8 11.4 44 7.3 SSE 32 43 17 23 1023.4 1023.4 0.0
20/04:30pm 25.4 19.6 10.8 40 8.2 SSE 32 46 17 25 1023.0 1023.0 0.0
20/04:00pm 27.2 21.8 10.8 36 9.2 S 30 44 16 24 1022.4 1022.4 0.0
20/03:30pm 27.9 24.9 12.7 39 8.9 SSE 20 28 11 15 1022.1 1022.1 0.0
20/03:00pm 28.4 27.6 13.9 41 8.6 SE 11 17 6 9 1021.9 1021.9 0.0
20/02:30pm 28.8 26.9 14.2 40 8.8 S 17 28 9 15 1022.1 1022.1 0.0
20/02:00pm 27.4 25.5 13.0 41 8.4 SSE 15 20 8 11 1022.4 1022.4 0.0
20/01:30pm 27.5 25.9 11.5 37 9.2 SE 11 20 6 11 1022.6 1022.6 0.0
20/01:00pm 26.8 25.8 12.4 40 8.3 SE 9 22 5 12 1022.9 1022.9 0.0

Other Formats:

Comma delimited format used in spreadsheet applications
http://www.bom.gov.au/fwo/IDN60801/IDN60801.94572.axf

JavaScript Object Notation format (JSON) in row-major order
http://www.bom.gov.au/fwo/IDN60801/IDN60801.94572.json